Terminal Aerodrome Forecast
Issued by NWS

Home | Current Version | Previous Version | Text Only | Print | Product List | Glossary On
Versions: 1 2 3 4 5 6 7 8 9 10 11 12
000
FTUS41 KRNK 232320
TAFBCB
TAF
KBCB 232320Z 2400/2424 31003KT P6SM SKC
     FM240700 00000KT 4SM BR SCT003
      TEMPO 2409/2412 1/2SM FG BKN003
     FM241200 VRB03KT P6SM SKC
     FM241900 18004KT P6SM SCT045=

USA.gov is the U.S. government's official web portal to all federal, state and local government web resources and services.